createdAt,value
2017-10-06T00:00:48.213Z,0
2017-10-06T00:01:57.202Z,0
2017-10-06T00:03:06.047Z,0
2017-10-06T00:04:14.889Z,0
2017-10-06T00:05:23.735Z,0
2017-10-06T00:06:32.579Z,0
2017-10-06T00:07:41.571Z,0
2017-10-06T00:08:50.412Z,0
2017-10-06T00:09:59.255Z,0
2017-10-06T00:11:08.098Z,0
2017-10-06T00:12:16.941Z,0
2017-10-06T00:13:25.835Z,0
2017-10-06T00:14:34.678Z,0
2017-10-06T00:15:43.522Z,0
2017-10-06T00:16:52.361Z,0
2017-10-06T00:18:01.202Z,0
2017-10-06T00:19:10.051Z,0
2017-10-06T00:20:20.312Z,0
2017-10-06T00:21:29.153Z,0
2017-10-06T00:22:37.994Z,0
2017-10-06T00:23:46.837Z,0
2017-10-06T00:24:55.929Z,0
2017-10-06T00:26:04.774Z,0
2017-10-06T00:27:13.616Z,0
2017-10-06T00:28:22.457Z,0
2017-10-06T00:29:31.303Z,0
2017-10-06T00:30:40.284Z,0
2017-10-06T00:31:49.457Z,0
2017-10-06T00:32:58.629Z,0
2017-10-06T00:34:07.474Z,0
2017-10-06T00:35:16.315Z,0
2017-10-06T00:36:25.263Z,0
2017-10-06T00:37:34.435Z,0
2017-10-06T00:38:43.276Z,0
2017-10-06T00:39:52.121Z,0
2017-10-06T00:41:00.960Z,0
2017-10-06T00:42:09.807Z,0
2017-10-06T00:43:18.644Z,0
2017-10-06T00:44:27.485Z,0
2017-10-06T00:45:36.326Z,0
2017-10-06T00:46:45.498Z,0
2017-10-06T00:47:54.495Z,0
2017-10-06T00:49:03.672Z,0
2017-10-06T00:50:12.507Z,0
2017-10-06T00:51:21.351Z,0
2017-10-06T00:52:30.200Z,0
2017-10-06T00:53:39.193Z,0
2017-10-06T00:54:48.037Z,0
2017-10-06T00:55:56.880Z,0
2017-10-06T00:57:06.057Z,0
2017-10-06T00:58:14.901Z,0
2017-10-06T00:59:23.890Z,0
2017-10-06T01:00:32.731Z,0
2017-10-06T01:01:41.572Z,0
2017-10-06T01:02:50.413Z,0
2017-10-06T01:03:59.255Z,0
2017-10-06T01:05:08.146Z,0
2017-10-06T01:06:16.986Z,0
2017-10-06T01:07:25.828Z,0
2017-10-06T01:08:34.670Z,0
2017-10-06T01:09:43.511Z,0
2017-10-06T01:10:52.454Z,0
2017-10-06T01:12:01.297Z,0
2017-10-06T01:13:10.141Z,0
2017-10-06T01:14:18.983Z,0
2017-10-06T01:15:27.826Z,0
2017-10-06T01:16:36.817Z,0
2017-10-06T01:17:45.660Z,0
2017-10-06T01:18:54.502Z,0
2017-10-06T01:20:03.344Z,0
2017-10-06T01:21:12.187Z,0
2017-10-06T01:22:21.183Z,0
2017-10-06T01:23:30.025Z,0
2017-10-06T01:24:39.200Z,0
2017-10-06T01:25:48.039Z,0
2017-10-06T01:26:56.880Z,0
2017-10-06T01:28:06.108Z,0
2017-10-06T01:29:14.949Z,0
2017-10-06T01:30:23.790Z,0
2017-10-06T01:31:32.634Z,0
2017-10-06T01:32:41.477Z,0
2017-10-06T01:33:50.470Z,0
2017-10-06T01:34:59.310Z,0
2017-10-06T01:36:08.152Z,0
2017-10-06T01:37:17.333Z,0
2017-10-06T01:38:26.175Z,0
2017-10-06T01:39:35.214Z,0
2017-10-06T01:40:44.104Z,0
2017-10-06T01:41:52.945Z,0
2017-10-06T01:43:01.789Z,0
2017-10-06T01:44:10.627Z,0
2017-10-06T01:45:19.523Z,0
2017-10-06T01:46:28.365Z,0
2017-10-06T01:47:37.207Z,0
2017-10-06T01:48:46.049Z,0
2017-10-06T01:49:54.890Z,0
2017-10-06T01:51:03.938Z,0
2017-10-06T01:52:13.107Z,0
2017-10-06T01:53:21.951Z,0
2017-10-06T01:54:31.152Z,0
2017-10-06T01:55:39.991Z,0
2017-10-06T01:56:48.840Z,0
2017-10-06T01:57:58.010Z,0
2017-10-06T01:59:06.852Z,0
2017-10-06T02:00:15.694Z,0
2017-10-06T02:01:24.534Z,0
2017-10-06T02:02:33.525Z,0
2017-10-06T02:03:42.364Z,0
2017-10-06T02:04:51.205Z,0
2017-10-06T02:06:00.049Z,0
2017-10-06T02:07:08.897Z,0
2017-10-06T02:08:17.835Z,0
2017-10-06T02:09:27.023Z,0
2017-10-06T02:10:35.862Z,0
2017-10-06T02:11:44.706Z,0
2017-10-06T02:12:53.546Z,0
2017-10-06T02:14:02.438Z,0
2017-10-06T02:15:11.279Z,0
2017-10-06T02:16:20.456Z,0
2017-10-06T02:17:29.300Z,0
2017-10-06T02:18:38.142Z,0
2017-10-06T02:19:47.133Z,0
2017-10-06T02:20:55.977Z,0
2017-10-06T02:22:04.819Z,0
2017-10-06T02:23:13.660Z,0
2017-10-06T02:24:22.502Z,0
2017-10-06T02:25:31.547Z,0
2017-10-06T02:26:40.387Z,0
2017-10-06T02:27:49.228Z,0
2017-10-06T02:28:58.070Z,0
2017-10-06T02:30:07.592Z,0
2017-10-06T02:31:16.536Z,0
2017-10-06T02:32:25.378Z,0
2017-10-06T02:33:34.218Z,0
2017-10-06T02:34:43.063Z,0
2017-10-06T02:35:51.911Z,0
2017-10-06T02:37:00.796Z,0
2017-10-06T02:38:09.649Z,0
2017-10-06T02:39:18.493Z,0
2017-10-06T02:40:27.334Z,0
2017-10-06T02:41:36.177Z,0
2017-10-06T02:42:45.473Z,0
2017-10-06T02:43:54.314Z,0
2017-10-06T02:45:03.156Z,0
2017-10-06T02:46:11.999Z,0
2017-10-06T02:47:20.839Z,0
2017-10-06T02:48:29.729Z,0
2017-10-06T02:49:38.579Z,0
2017-10-06T02:50:47.775Z,0
2017-10-06T02:51:56.618Z,0
2017-10-06T02:53:05.794Z,0
2017-10-06T02:54:14.736Z,0
2017-10-06T02:55:23.577Z,0
2017-10-06T02:56:32.418Z,0
2017-10-06T02:57:41.259Z,0
2017-10-06T02:58:50.101Z,0
2017-10-06T02:59:59.097Z,0
2017-10-06T03:01:07.940Z,0
2017-10-06T03:02:16.782Z,0
2017-10-06T03:03:25.624Z,0
2017-10-06T03:04:34.467Z,0
2017-10-06T03:05:43.608Z,0
2017-10-06T03:06:52.450Z,0
2017-10-06T03:08:01.291Z,0
2017-10-06T03:09:10.140Z,0
2017-10-06T03:10:19.310Z,0
2017-10-06T03:11:28.253Z,0
2017-10-06T03:12:37.097Z,0
2017-10-06T03:13:45.936Z,0
2017-10-06T03:14:54.777Z,0
2017-10-06T03:16:03.620Z,0
2017-10-06T03:17:12.559Z,0
2017-10-06T03:18:21.401Z,0
2017-10-06T03:19:30.242Z,0
2017-10-06T03:20:39.083Z,0
2017-10-06T03:21:47.929Z,0
2017-10-06T03:22:57.020Z,0
2017-10-06T03:24:05.861Z,0
2017-10-06T03:25:14.704Z,0
2017-10-06T03:26:23.544Z,0
2017-10-06T03:27:32.387Z,0
2017-10-06T03:28:41.332Z,0
2017-10-06T03:29:50.174Z,0
2017-10-06T03:30:59.018Z,0
2017-10-06T03:32:07.858Z,0
2017-10-06T03:33:16.700Z,0
2017-10-06T03:34:25.644Z,0
2017-10-06T03:35:34.484Z,0
2017-10-06T03:36:43.326Z,0
2017-10-06T03:37:52.164Z,0
2017-10-06T03:39:01.005Z,0
2017-10-06T03:40:10.098Z,0
2017-10-06T03:41:18.939Z,0
2017-10-06T03:42:27.783Z,0
2017-10-06T03:43:36.627Z,0
2017-10-06T03:44:45.471Z,0
2017-10-06T03:45:54.512Z,0
2017-10-06T03:47:03.357Z,0
2017-10-06T03:48:12.198Z,0
2017-10-06T03:49:21.042Z,0
2017-10-06T03:50:29.884Z,0
2017-10-06T03:51:38.775Z,0
2017-10-06T03:52:47.617Z,0
2017-10-06T03:53:56.459Z,0
2017-10-06T03:55:05.303Z,0
2017-10-06T03:56:14.145Z,0
2017-10-06T03:57:23.469Z,0
2017-10-06T03:58:32.312Z,0
2017-10-06T03:59:41.152Z,0
2017-10-06T04:00:49.992Z,0
2017-10-06T04:01:58.834Z,0
2017-10-06T04:03:08.177Z,0
2017-10-06T04:04:17.019Z,0
2017-10-06T04:05:25.862Z,0
2017-10-06T04:06:34.703Z,0
2017-10-06T04:07:43.546Z,0
2017-10-06T04:08:52.535Z,0
2017-10-06T04:10:01.376Z,0
2017-10-06T04:11:10.219Z,0
2017-10-06T04:12:19.061Z,0
2017-10-06T04:13:28.237Z,0
2017-10-06T04:14:37.128Z,0
2017-10-06T04:15:45.969Z,0
2017-10-06T04:16:54.810Z,0
2017-10-06T04:18:03.652Z,0
2017-10-06T04:19:12.493Z,0
2017-10-06T04:20:21.484Z,0
2017-10-06T04:21:30.325Z,0
2017-10-06T04:22:39.169Z,0
2017-10-06T04:23:48.013Z,0
2017-10-06T04:24:56.852Z,0
2017-10-06T04:26:05.793Z,0
2017-10-06T04:27:14.635Z,0
2017-10-06T04:28:23.480Z,0
2017-10-06T04:29:32.323Z,0
2017-10-06T04:30:41.166Z,0
2017-10-06T04:31:50.156Z,0
2017-10-06T04:32:58.999Z,0
2017-10-06T04:34:07.843Z,0
2017-10-06T04:35:16.685Z,0
2017-10-06T04:36:25.527Z,0
2017-10-06T04:37:34.675Z,0
2017-10-06T04:38:43.516Z,0
2017-10-06T04:39:52.359Z,0
2017-10-06T04:41:01.200Z,0
2017-10-06T04:42:10.039Z,0
2017-10-06T04:43:18.878Z,0
2017-10-06T04:44:27.719Z,0
2017-10-06T04:45:36.562Z,0
2017-10-06T04:46:45.404Z,0
2017-10-06T04:47:54.245Z,0
2017-10-06T04:49:03.186Z,0
2017-10-06T04:50:12.026Z,0
2017-10-06T04:51:20.866Z,0
2017-10-06T04:52:29.703Z,0
2017-10-06T04:53:38.550Z,0
2017-10-06T04:54:47.791Z,0
2017-10-06T04:55:56.631Z,0
2017-10-06T04:57:05.474Z,0
2017-10-06T04:58:14.313Z,0
2017-10-06T04:59:23.154Z,0
2017-10-06T05:00:32.096Z,0
2017-10-06T05:01:40.939Z,0
2017-10-06T05:02:49.782Z,0
2017-10-06T05:03:58.625Z,0
2017-10-06T05:05:07.800Z,0
2017-10-06T05:06:16.693Z,0
2017-10-06T05:07:25.537Z,0
2017-10-06T05:08:34.379Z,0
2017-10-06T05:09:43.557Z,0
2017-10-06T05:10:52.397Z,4
2017-10-06T05:12:01.338Z,4
2017-10-06T05:13:10.182Z,4
2017-10-06T05:14:19.357Z,4
2017-10-06T05:15:28.201Z,4
2017-10-06T05:16:37.046Z,4
2017-10-06T05:17:46.038Z,4
2017-10-06T05:18:54.879Z,12
2017-10-06T05:20:03.724Z,12
2017-10-06T05:21:12.563Z,12
2017-10-06T05:22:21.736Z,12
2017-10-06T05:23:30.581Z,16
2017-10-06T05:24:39.757Z,20
2017-10-06T05:25:48.598Z,16
2017-10-06T05:26:57.441Z,24
2017-10-06T05:28:06.287Z,28
2017-10-06T05:29:15.662Z,28
2017-10-06T05:30:24.502Z,28
2017-10-06T05:31:33.342Z,28
2017-10-06T05:32:42.182Z,36
2017-10-06T05:33:51.024Z,48
2017-10-06T05:34:59.968Z,60
2017-10-06T05:36:08.808Z,68
2017-10-06T05:37:17.651Z,80
2017-10-06T05:38:26.491Z,96
2017-10-06T05:39:35.335Z,112
2017-10-06T05:40:44.226Z,124
2017-10-06T05:41:53.070Z,140
2017-10-06T05:43:01.916Z,148
2017-10-06T05:44:10.756Z,156
2017-10-06T05:45:19.601Z,168
2017-10-06T05:46:28.594Z,196
2017-10-06T05:47:37.433Z,212
2017-10-06T05:48:46.277Z,228
2017-10-06T05:49:55.121Z,232
2017-10-06T05:51:03.963Z,260
2017-10-06T05:52:13.206Z,236
2017-10-06T05:53:22.050Z,188
2017-10-06T05:54:30.890Z,152
2017-10-06T05:55:39.734Z,128
2017-10-06T05:56:48.575Z,132
2017-10-06T05:57:57.569Z,128
2017-10-06T05:59:06.413Z,88
2017-10-06T06:00:15.255Z,72
2017-10-06T06:01:24.100Z,76
2017-10-06T06:02:32.941Z,84
2017-10-06T06:03:41.881Z,92
2017-10-06T06:04:50.727Z,92
2017-10-06T06:05:59.567Z,108
2017-10-06T06:07:08.411Z,140
2017-10-06T06:08:17.255Z,168
2017-10-06T06:09:26.196Z,180
2017-10-06T06:10:35.038Z,180
2017-10-06T06:11:44.211Z,128
2017-10-06T06:12:53.052Z,100
2017-10-06T06:14:01.892Z,56
2017-10-06T06:15:11.036Z,60
2017-10-06T06:16:19.876Z,56
2017-10-06T06:17:28.721Z,64
2017-10-06T06:18:37.563Z,48
2017-10-06T06:19:46.407Z,56
2017-10-06T06:20:55.499Z,60
2017-10-06T06:22:04.347Z,56
2017-10-06T06:23:13.191Z,60
2017-10-06T06:24:22.033Z,64
2017-10-06T06:25:30.873Z,72
2017-10-06T06:26:39.765Z,72
2017-10-06T06:27:48.604Z,88
2017-10-06T06:28:57.449Z,132
2017-10-06T06:30:06.289Z,172
2017-10-06T06:31:15.132Z,208
2017-10-06T06:32:24.022Z,228
2017-10-06T06:33:32.868Z,280
2017-10-06T06:34:42.043Z,364
2017-10-06T06:35:50.886Z,388
2017-10-06T06:36:59.728Z,296
2017-10-06T06:38:08.670Z,228
2017-10-06T06:39:17.513Z,236
2017-10-06T06:40:26.354Z,276
2017-10-06T06:41:35.195Z,320
2017-10-06T06:42:44.039Z,372
2017-10-06T06:43:53.130Z,440
2017-10-06T06:45:02.315Z,480
2017-10-06T06:46:11.159Z,496
2017-10-06T06:47:20.001Z,580
2017-10-06T06:48:28.845Z,688
2017-10-06T06:49:37.838Z,760
2017-10-06T06:50:46.680Z,880
2017-10-06T06:51:55.523Z,972
2017-10-06T06:53:04.365Z,1068
2017-10-06T06:54:13.208Z,1184
2017-10-06T06:55:22.050Z,1288
2017-10-06T06:56:30.893Z,1420
2017-10-06T06:57:39.735Z,1536
2017-10-06T06:58:48.577Z,1636
2017-10-06T06:59:57.418Z,1668
2017-10-06T07:01:06.311Z,1608
2017-10-06T07:02:15.156Z,1448
2017-10-06T07:03:23.998Z,560
2017-10-06T07:04:32.840Z,444
2017-10-06T07:05:41.683Z,348
2017-10-06T07:06:50.531Z,372
2017-10-06T07:07:59.368Z,528
2017-10-06T07:09:08.212Z,620
2017-10-06T07:10:17.053Z,672
2017-10-06T07:11:25.895Z,716
2017-10-06T07:12:34.787Z,672
2017-10-06T07:13:43.680Z,612
2017-10-06T07:14:52.525Z,620
2017-10-06T07:16:01.379Z,652
2017-10-06T07:17:10.210Z,1056
2017-10-06T07:18:19.351Z,1660
2017-10-06T07:19:28.196Z,1928
2017-10-06T07:20:37.039Z,2040
2017-10-06T07:21:45.879Z,2116
2017-10-06T07:22:54.722Z,2176
2017-10-06T07:24:03.666Z,2292
2017-10-06T07:25:12.508Z,2312
2017-10-06T07:26:21.350Z,2160
2017-10-06T07:27:30.194Z,2156
2017-10-06T07:28:39.035Z,2032
2017-10-06T07:29:48.029Z,2364
2017-10-06T07:30:56.873Z,1952
2017-10-06T07:32:05.719Z,828
2017-10-06T07:33:14.562Z,636
2017-10-06T07:34:23.407Z,564
2017-10-06T07:35:32.303Z,524
2017-10-06T07:36:41.146Z,420
2017-10-06T07:37:49.990Z,424
2017-10-06T07:38:58.838Z,480
2017-10-06T07:40:07.681Z,584
2017-10-06T07:41:16.574Z,640
2017-10-06T07:42:25.423Z,800
2017-10-06T07:43:34.264Z,780
2017-10-06T07:44:43.106Z,804
2017-10-06T07:45:51.949Z,916
2017-10-06T07:47:00.843Z,924
2017-10-06T07:48:09.688Z,996
2017-10-06T07:49:18.530Z,1280
2017-10-06T07:50:27.707Z,1416
2017-10-06T07:51:36.551Z,1656
2017-10-06T07:52:45.592Z,2308
2017-10-06T07:53:54.435Z,2968
2017-10-06T07:55:03.278Z,3680
2017-10-06T07:56:12.122Z,4080
2017-10-06T07:57:20.963Z,4100
2017-10-06T07:58:29.854Z,3728
2017-10-06T07:59:38.697Z,3144
2017-10-06T08:00:47.541Z,2808
2017-10-06T08:01:56.382Z,2612
2017-10-06T08:03:05.228Z,2840
2017-10-06T08:04:15.038Z,2892
2017-10-06T08:05:23.882Z,2912
2017-10-06T08:06:32.726Z,2888
2017-10-06T08:07:41.569Z,2924
2017-10-06T08:08:50.413Z,2744
2017-10-06T08:09:59.406Z,2484
2017-10-06T08:11:08.248Z,2164
2017-10-06T08:12:17.089Z,1836
2017-10-06T08:13:26.135Z,2144
2017-10-06T08:14:34.977Z,2708
2017-10-06T08:15:44.074Z,2772
2017-10-06T08:16:52.916Z,2688
2017-10-06T08:18:01.761Z,2596
2017-10-06T08:19:10.606Z,2496
2017-10-06T08:20:19.450Z,2552
2017-10-06T08:21:28.394Z,2732
2017-10-06T08:22:37.242Z,2856
2017-10-06T08:23:46.086Z,2688
2017-10-06T08:24:54.932Z,2576
2017-10-06T08:26:03.778Z,3320
2017-10-06T08:27:12.821Z,3664
2017-10-06T08:28:21.665Z,3664
2017-10-06T08:29:30.510Z,3652
2017-10-06T08:30:39.354Z,4148
2017-10-06T08:31:48.200Z,4140
2017-10-06T08:32:57.146Z,3552
2017-10-06T08:34:05.991Z,3480
2017-10-06T08:35:14.838Z,3396
2017-10-06T08:36:23.686Z,3668
2017-10-06T08:37:32.533Z,3708
2017-10-06T08:38:41.477Z,3276
2017-10-06T08:39:50.325Z,3136
2017-10-06T08:40:59.170Z,3520
2017-10-06T08:42:08.014Z,3760
2017-10-06T08:43:16.859Z,3676
2017-10-06T08:44:25.855Z,3680
2017-10-06T08:45:34.697Z,3800
2017-10-06T08:46:43.546Z,3456
2017-10-06T08:47:52.394Z,3308
2017-10-06T08:49:01.240Z,3388
2017-10-06T08:50:10.819Z,3476
2017-10-06T08:51:20.000Z,3728
2017-10-06T08:52:29.181Z,3904
2017-10-06T08:53:38.370Z,4188
2017-10-06T08:54:47.544Z,5576
2017-10-06T08:55:56.590Z,4828
2017-10-06T08:57:05.432Z,4744
2017-10-06T08:58:14.279Z,3692
2017-10-06T08:59:23.125Z,5212
2017-10-06T09:00:31.969Z,5460
2017-10-06T09:01:40.966Z,3304
2017-10-06T09:02:50.140Z,3244
2017-10-06T09:03:58.986Z,3460
2017-10-06T09:05:07.832Z,3816
2017-10-06T09:06:16.679Z,4672
2017-10-06T09:07:25.676Z,4620
2017-10-06T09:08:34.520Z,5664
2017-10-06T09:09:43.364Z,6604
2017-10-06T09:10:52.211Z,7184
2017-10-06T09:12:01.058Z,7916
2017-10-06T09:13:09.953Z,7236
2017-10-06T09:14:18.798Z,6852
2017-10-06T09:15:27.644Z,5960
2017-10-06T09:16:36.488Z,5868
2017-10-06T09:17:45.337Z,5776
2017-10-06T09:18:54.337Z,5204
2017-10-06T09:20:03.184Z,4956
2017-10-06T09:21:12.030Z,4140
2017-10-06T09:22:21.212Z,2932
2017-10-06T09:23:30.058Z,2900
2017-10-06T09:24:38.904Z,2712
2017-10-06T09:25:47.749Z,3232
2017-10-06T09:26:56.646Z,3420
2017-10-06T09:28:05.821Z,3432
2017-10-06T09:29:14.667Z,3488
2017-10-06T09:30:23.561Z,3256
2017-10-06T09:31:32.403Z,3924
2017-10-06T09:32:41.585Z,4404
2017-10-06T09:33:50.429Z,4752
2017-10-06T09:34:59.274Z,4924
2017-10-06T09:36:08.166Z,4496
2017-10-06T09:37:17.012Z,4396
2017-10-06T09:38:25.858Z,4968
2017-10-06T09:39:34.706Z,5624
2017-10-06T09:40:43.553Z,7196
2017-10-06T09:41:52.399Z,6576
2017-10-06T09:43:01.586Z,4132
2017-10-06T09:44:10.433Z,2456
2017-10-06T09:45:19.276Z,2128
2017-10-06T09:46:28.123Z,2084
2017-10-06T09:47:37.267Z,2000
2017-10-06T09:48:46.448Z,1768
2017-10-06T09:49:55.294Z,1960
2017-10-06T09:51:04.138Z,2192
2017-10-06T09:52:13.314Z,2044
2017-10-06T09:53:22.259Z,3300
2017-10-06T09:54:31.103Z,3228
2017-10-06T09:55:39.946Z,3376
2017-10-06T09:56:48.791Z,3352
2017-10-06T09:57:57.636Z,3136
2017-10-06T09:59:06.581Z,4044
2017-10-06T10:00:15.454Z,4160
2017-10-06T10:01:24.299Z,2308
2017-10-06T10:02:33.176Z,1972
2017-10-06T10:03:42.350Z,2400
2017-10-06T10:04:51.193Z,2504
2017-10-06T10:06:00.039Z,4548
2017-10-06T10:07:08.884Z,4428
2017-10-06T10:08:17.729Z,5324
2017-10-06T10:09:26.580Z,5684
2017-10-06T10:10:35.521Z,6264
2017-10-06T10:11:44.366Z,6340
2017-10-06T10:12:53.211Z,8160
2017-10-06T10:14:02.058Z,9712
2017-10-06T10:15:10.903Z,8828
2017-10-06T10:16:19.801Z,7028
2017-10-06T10:17:28.645Z,3668
2017-10-06T10:18:37.492Z,2968
2017-10-06T10:19:46.337Z,2348
2017-10-06T10:20:55.183Z,1584
2017-10-06T10:22:04.130Z,1272
2017-10-06T10:23:12.974Z,1140
2017-10-06T10:24:21.821Z,972
2017-10-06T10:25:30.667Z,808
2017-10-06T10:26:39.511Z,812
2017-10-06T10:27:48.506Z,708
2017-10-06T10:28:57.349Z,568
2017-10-06T10:30:06.196Z,580
2017-10-06T10:31:15.038Z,580
2017-10-06T10:32:23.881Z,356
2017-10-06T10:33:32.727Z,448
2017-10-06T10:34:41.572Z,316
2017-10-06T10:35:50.418Z,360
2017-10-06T10:36:59.264Z,192
2017-10-06T10:38:08.437Z,204
2017-10-06T10:39:17.382Z,388
2017-10-06T10:40:26.226Z,368
2017-10-06T10:41:35.401Z,388
2017-10-06T10:42:44.244Z,544
2017-10-06T10:43:53.088Z,476
2017-10-06T10:45:01.949Z,556
2017-10-06T10:46:10.773Z,864
2017-10-06T10:47:19.955Z,808
2017-10-06T10:48:28.800Z,764
2017-10-06T10:49:37.650Z,756
2017-10-06T10:50:46.489Z,720
2017-10-06T10:51:55.333Z,748
2017-10-06T10:53:04.178Z,952
2017-10-06T10:54:13.352Z,956
2017-10-06T10:55:22.194Z,1248
2017-10-06T10:56:31.187Z,1872
2017-10-06T10:57:40.362Z,2448
2017-10-06T10:58:49.206Z,2640
2017-10-06T10:59:58.049Z,2252
2017-10-06T11:01:06.896Z,1576
2017-10-06T11:02:15.840Z,1172
2017-10-06T11:03:24.689Z,988
2017-10-06T11:04:33.533Z,888
2017-10-06T11:05:42.375Z,572
2017-10-06T11:06:51.219Z,416
2017-10-06T11:08:00.065Z,376
2017-10-06T11:09:08.911Z,408
2017-10-06T11:10:17.754Z,512
2017-10-06T11:11:26.597Z,600
2017-10-06T11:12:35.440Z,764
2017-10-06T11:13:44.435Z,880
2017-10-06T11:14:53.277Z,996
2017-10-06T11:16:02.119Z,1120
2017-10-06T11:17:10.961Z,1380
2017-10-06T11:18:19.805Z,1556
2017-10-06T11:19:28.849Z,1688
2017-10-06T11:20:37.696Z,1428
2017-10-06T11:21:46.540Z,1444
2017-10-06T11:22:55.384Z,1712
2017-10-06T11:24:04.229Z,2844
2017-10-06T11:25:13.174Z,4896
2017-10-06T11:26:22.020Z,5732
2017-10-06T11:27:30.869Z,4796
2017-10-06T11:28:40.045Z,2972
2017-10-06T11:29:48.888Z,1912
2017-10-06T11:30:57.880Z,2096
2017-10-06T11:32:06.725Z,2140
2017-10-06T11:33:15.569Z,2396
2017-10-06T11:34:24.419Z,2288
2017-10-06T11:35:33.263Z,1984
2017-10-06T11:36:42.158Z,1604
2017-10-06T11:37:51.002Z,1284
2017-10-06T11:38:59.846Z,1068
2017-10-06T11:40:08.692Z,948
2017-10-06T11:41:17.538Z,808
2017-10-06T11:42:26.636Z,860
2017-10-06T11:43:35.480Z,1148
2017-10-06T11:44:44.323Z,1476
2017-10-06T11:45:53.169Z,1504
2017-10-06T11:47:02.011Z,2524
2017-10-06T11:48:11.006Z,3260
2017-10-06T11:49:19.850Z,3336
2017-10-06T11:50:28.694Z,2980
2017-10-06T11:51:37.539Z,1600
2017-10-06T11:52:46.383Z,1852
2017-10-06T11:53:55.233Z,1572
2017-10-06T11:55:04.077Z,1648
2017-10-06T11:56:12.919Z,2560
2017-10-06T11:57:21.762Z,1956
2017-10-06T11:58:30.608Z,1664
2017-10-06T11:59:39.934Z,1128
2017-10-06T12:00:48.779Z,1092
2017-10-06T12:01:57.624Z,868
2017-10-06T12:03:06.473Z,616
2017-10-06T12:04:15.648Z,384
2017-10-06T12:05:24.542Z,340
2017-10-06T12:06:33.386Z,288
2017-10-06T12:07:42.229Z,292
2017-10-06T12:08:51.073Z,360
2017-10-06T12:09:59.915Z,616
2017-10-06T12:11:08.808Z,756
2017-10-06T12:12:17.651Z,796
2017-10-06T12:13:26.493Z,844
2017-10-06T12:14:35.337Z,868
2017-10-06T12:15:44.182Z,988
2017-10-06T12:16:53.128Z,1272
2017-10-06T12:18:01.971Z,1640
2017-10-06T12:19:10.816Z,1372
2017-10-06T12:20:19.665Z,1064
2017-10-06T12:21:28.506Z,1168
2017-10-06T12:22:37.651Z,1484
2017-10-06T12:23:46.494Z,1964
2017-10-06T12:24:55.339Z,2132
2017-10-06T12:26:04.185Z,2312
2017-10-06T12:27:13.026Z,2332
2017-10-06T12:28:21.868Z,3896
2017-10-06T12:29:30.714Z,7064
2017-10-06T12:30:39.559Z,5144
2017-10-06T12:31:48.401Z,2696
2017-10-06T12:32:57.246Z,4144
2017-10-06T12:34:06.196Z,7496
2017-10-06T12:35:15.373Z,6084
2017-10-06T12:36:24.219Z,10840
2017-10-06T12:37:33.401Z,15328
2017-10-06T12:38:42.245Z,13620
2017-10-06T12:39:51.194Z,6276
2017-10-06T12:41:00.038Z,2260
2017-10-06T12:42:08.886Z,2084
2017-10-06T12:43:17.733Z,2124
2017-10-06T12:44:26.580Z,3392
2017-10-06T12:45:35.627Z,4580
2017-10-06T12:46:44.473Z,4508
2017-10-06T12:47:53.319Z,2972
2017-10-06T12:49:02.164Z,2360
2017-10-06T12:50:11.009Z,2912
2017-10-06T12:51:20.255Z,13664
2017-10-06T12:52:29.101Z,7876
2017-10-06T12:53:37.945Z,14752
2017-10-06T12:54:46.789Z,9912
2017-10-06T12:55:55.634Z,6748
2017-10-06T12:57:04.480Z,4800
2017-10-06T12:58:13.664Z,4324
2017-10-06T12:59:22.510Z,5692
2017-10-06T13:00:31.360Z,6520
2017-10-06T13:01:40.206Z,9100
2017-10-06T13:02:49.304Z,8576
2017-10-06T13:03:58.150Z,6300
2017-10-06T13:05:07.007Z,4660
2017-10-06T13:06:15.854Z,4536
2017-10-06T13:07:24.700Z,3760
2017-10-06T13:08:33.747Z,5988
2017-10-06T13:09:42.593Z,4924
2017-10-06T13:10:51.439Z,3456
2017-10-06T13:12:00.286Z,2912
2017-10-06T13:13:09.133Z,1436
2017-10-06T13:14:18.078Z,1272
2017-10-06T13:15:26.923Z,1968
2017-10-06T13:16:35.770Z,1660
2017-10-06T13:17:44.617Z,1704
2017-10-06T13:18:53.462Z,1896
2017-10-06T13:20:02.359Z,1900
2017-10-06T13:21:11.207Z,2152
2017-10-06T13:22:20.055Z,1868
2017-10-06T13:23:28.903Z,1648
2017-10-06T13:24:37.750Z,1424
2017-10-06T13:25:46.645Z,1348
2017-10-06T13:26:55.491Z,1328
2017-10-06T13:28:04.334Z,1340
2017-10-06T13:29:13.177Z,1564
2017-10-06T13:30:22.023Z,2716
2017-10-06T13:31:31.117Z,3644
2017-10-06T13:32:39.962Z,3964
2017-10-06T13:33:48.809Z,7512
2017-10-06T13:34:57.655Z,6108
2017-10-06T13:36:06.499Z,16128
2017-10-06T13:37:15.492Z,8944
2017-10-06T13:38:24.335Z,11424
2017-10-06T13:39:33.182Z,18752
2017-10-06T13:40:42.049Z,12756
2017-10-06T13:41:50.926Z,3472
2017-10-06T13:43:00.076Z,2584
2017-10-06T13:44:08.927Z,5668
2017-10-06T13:45:17.767Z,2724
2017-10-06T13:46:26.942Z,2436
2017-10-06T13:47:35.789Z,3756
2017-10-06T13:48:44.736Z,7276
2017-10-06T13:49:53.586Z,8804
2017-10-06T13:51:02.435Z,7120
2017-10-06T13:52:11.288Z,4736
2017-10-06T13:53:20.466Z,7128
2017-10-06T13:54:29.614Z,4720
2017-10-06T13:55:38.468Z,8292
2017-10-06T13:56:47.317Z,5320
2017-10-06T13:57:56.166Z,7064
2017-10-06T13:59:05.015Z,5456
2017-10-06T14:00:14.012Z,4368
2017-10-06T14:01:22.860Z,5704
2017-10-06T14:02:31.709Z,5592
2017-10-06T14:03:40.557Z,6556
2017-10-06T14:04:49.405Z,11336
2017-10-06T14:05:58.304Z,8144
2017-10-06T14:07:07.156Z,4952
2017-10-06T14:08:16.004Z,8884
2017-10-06T14:09:24.854Z,6832
2017-10-06T14:10:33.704Z,4460
2017-10-06T14:11:42.603Z,7740
2017-10-06T14:12:51.449Z,5212
2017-10-06T14:14:00.632Z,8696
2017-10-06T14:15:09.482Z,20480
2017-10-06T14:16:18.326Z,17920
2017-10-06T14:17:27.224Z,15168
2017-10-06T14:18:36.075Z,10680
2017-10-06T14:19:44.926Z,15328
2017-10-06T14:20:53.774Z,14176
2017-10-06T14:22:02.622Z,15072
2017-10-06T14:23:11.522Z,15296
2017-10-06T14:24:20.374Z,9496
2017-10-06T14:25:29.552Z,6048
2017-10-06T14:26:38.399Z,5652
2017-10-06T14:27:47.247Z,4120
2017-10-06T14:28:56.248Z,4328
2017-10-06T14:30:05.099Z,4068
2017-10-06T14:31:13.949Z,4452
2017-10-06T14:32:22.796Z,4924
2017-10-06T14:33:31.985Z,6248
2017-10-06T14:34:40.984Z,5528
2017-10-06T14:35:49.833Z,3140
2017-10-06T14:36:58.681Z,3132
2017-10-06T14:38:07.531Z,3172
2017-10-06T14:39:16.379Z,3264
2017-10-06T14:40:25.229Z,3232
2017-10-06T14:41:34.077Z,3164
2017-10-06T14:42:42.927Z,3116
2017-10-06T14:43:51.771Z,3124
2017-10-06T14:45:00.954Z,3044
2017-10-06T14:46:09.949Z,3144
2017-10-06T14:47:18.794Z,3084
2017-10-06T14:48:27.642Z,3064
2017-10-06T14:49:36.487Z,3212
2017-10-06T14:50:45.334Z,3092
2017-10-06T14:51:54.333Z,4156
2017-10-06T14:53:03.180Z,3832
2017-10-06T14:54:12.029Z,3372
2017-10-06T14:55:20.874Z,3320
2017-10-06T14:56:29.723Z,2996
2017-10-06T14:57:38.771Z,3528
2017-10-06T14:58:47.619Z,3524
2017-10-06T14:59:56.464Z,3740
2017-10-06T15:01:05.643Z,3836
2017-10-06T15:02:14.492Z,3984
2017-10-06T15:03:23.442Z,3464
2017-10-06T15:04:32.289Z,3900
2017-10-06T15:05:41.135Z,4720
2017-10-06T15:06:50.081Z,4152
2017-10-06T15:07:58.934Z,5012
2017-10-06T15:09:07.833Z,4928
2017-10-06T15:10:17.013Z,5180
2017-10-06T15:11:25.859Z,5612
2017-10-06T15:12:34.708Z,4700
2017-10-06T15:13:43.555Z,4512
2017-10-06T15:14:52.403Z,3248
2017-10-06T15:16:01.249Z,3640
2017-10-06T15:17:10.097Z,4844
2017-10-06T15:18:18.951Z,5816
2017-10-06T15:19:27.793Z,6752
2017-10-06T15:20:36.889Z,6244
2017-10-06T15:21:45.737Z,4680
2017-10-06T15:22:54.584Z,4732
2017-10-06T15:24:03.434Z,5152
2017-10-06T15:25:12.289Z,6372
2017-10-06T15:26:21.667Z,6548
2017-10-06T15:27:30.847Z,5048
2017-10-06T15:28:39.693Z,4552
2017-10-06T15:29:48.540Z,4052
2017-10-06T15:30:57.389Z,3896
2017-10-06T15:32:06.384Z,4596
2017-10-06T15:33:15.229Z,4252
2017-10-06T15:34:24.076Z,3952
2017-10-06T15:35:32.923Z,4096
2017-10-06T15:36:41.768Z,4140
2017-10-06T15:37:50.764Z,4972
2017-10-06T15:38:59.613Z,5584
2017-10-06T15:40:08.463Z,5104
2017-10-06T15:41:17.314Z,4848
2017-10-06T15:42:26.161Z,4708
2017-10-06T15:43:35.208Z,4448
2017-10-06T15:44:44.076Z,3400
2017-10-06T15:45:52.902Z,3620
2017-10-06T15:47:01.753Z,4108
2017-10-06T15:48:10.928Z,3992
2017-10-06T15:49:19.928Z,4396
2017-10-06T15:50:28.773Z,2736
2017-10-06T15:51:37.951Z,2144
2017-10-06T15:52:46.799Z,1824
2017-10-06T15:53:55.648Z,1632
2017-10-06T15:55:04.551Z,1584
2017-10-06T15:56:13.401Z,1332